sensor_id;sensor_type;location;lat;lon;timestamp;P1;durP1;ratioP1;P2;durP2;ratioP2
71091;SDS011;58751;50.708;7.134;2024-03-02T00:01:53;2.83;;;1.57;;
71091;SDS011;58751;50.708;7.134;2024-03-02T00:04:19;2.00;;;1.90;;
71091;SDS011;58751;50.708;7.134;2024-03-02T00:06:46;2.37;;;2.17;;
71091;SDS011;58751;50.708;7.134;2024-03-02T00:09:11;2.45;;;2.15;;
71091;SDS011;58751;50.708;7.134;2024-03-02T00:11:36;3.27;;;2.07;;
71091;SDS011;58751;50.708;7.134;2024-03-02T00:14:02;2.57;;;1.90;;
71091;SDS011;58751;50.708;7.134;2024-03-02T00:16:29;1.83;;;1.73;;
71091;SDS011;58751;50.708;7.134;2024-03-02T00:18:55;1.98;;;1.85;;
71091;SDS011;58751;50.708;7.134;2024-03-02T00:21:20;1.80;;;1.70;;
71091;SDS011;58751;50.708;7.134;2024-03-02T00:23:47;2.10;;;1.90;;
71091;SDS011;58751;50.708;7.134;2024-03-02T00:26:13;5.75;;;1.70;;
71091;SDS011;58751;50.708;7.134;2024-03-02T00:28:39;2.37;;;2.17;;
71091;SDS011;58751;50.708;7.134;2024-03-02T00:31:05;2.20;;;1.80;;
71091;SDS011;58751;50.708;7.134;2024-03-02T00:33:32;1.40;;;1.30;;
71091;SDS011;58751;50.708;7.134;2024-03-02T00:35:58;2.05;;;1.90;;
71091;SDS011;58751;50.708;7.134;2024-03-02T00:38:23;1.60;;;1.50;;
71091;SDS011;58751;50.708;7.134;2024-03-02T00:40:50;1.83;;;1.60;;
71091;SDS011;58751;50.708;7.134;2024-03-02T00:43:41;1.63;;;1.52;;
71091;SDS011;58751;50.708;7.134;2024-03-02T00:46:07;2.50;;;1.70;;
71091;SDS011;58751;50.708;7.134;2024-03-02T00:48:33;1.77;;;1.67;;
71091;SDS011;58751;50.708;7.134;2024-03-02T00:50:58;1.73;;;1.63;;
71091;SDS011;58751;50.708;7.134;2024-03-02T00:53:24;1.97;;;1.70;;
71091;SDS011;58751;50.708;7.134;2024-03-02T00:55:52;2.90;;;2.58;;
71091;SDS011;58751;50.708;7.134;2024-03-02T00:58:18;3.63;;;1.85;;
71091;SDS011;58751;50.708;7.134;2024-03-02T01:00:43;2.40;;;1.87;;
71091;SDS011;58751;50.708;7.134;2024-03-02T01:03:09;1.97;;;1.80;;
71091;SDS011;58751;50.708;7.134;2024-03-02T01:05:34;3.13;;;2.20;;
71091;SDS011;58751;50.708;7.134;2024-03-02T01:07:59;2.17;;;2.07;;
71091;SDS011;58751;50.708;7.134;2024-03-02T01:10:25;1.77;;;1.60;;
71091;SDS011;58751;50.708;7.134;2024-03-02T01:12:51;1.57;;;1.47;;
71091;SDS011;58751;50.708;7.134;2024-03-02T01:15:17;3.60;;;1.67;;
71091;SDS011;58751;50.708;7.134;2024-03-02T01:17:42;2.33;;;1.93;;
71091;SDS011;58751;50.708;7.134;2024-03-02T01:20:08;2.00;;;1.70;;
71091;SDS011;58751;50.708;7.134;2024-03-02T01:22:34;2.03;;;1.80;;
71091;SDS011;58751;50.708;7.134;2024-03-02T01:24:59;2.40;;;2.00;;
71091;SDS011;58751;50.708;7.134;2024-03-02T01:27:24;2.00;;;1.33;;
71091;SDS011;58751;50.708;7.134;2024-03-02T01:29:51;2.10;;;1.90;;
71091;SDS011;58751;50.708;7.134;2024-03-02T01:32:17;1.80;;;1.70;;
71091;SDS011;58751;50.708;7.134;2024-03-02T01:34:42;2.73;;;2.00;;
71091;SDS011;58751;50.708;7.134;2024-03-02T01:37:07;1.60;;;1.50;;
71091;SDS011;58751;50.708;7.134;2024-03-02T01:39:33;1.50;;;1.40;;
71091;SDS011;58751;50.708;7.134;2024-03-02T01:41:58;1.60;;;1.40;;
71091;SDS011;58751;50.708;7.134;2024-03-02T01:44:23;2.27;;;1.63;;
71091;SDS011;58751;50.708;7.134;2024-03-02T01:46:50;1.40;;;1.30;;
71091;SDS011;58751;50.708;7.134;2024-03-02T01:49:15;3.05;;;2.10;;
71091;SDS011;58751;50.708;7.134;2024-03-02T01:51:41;1.77;;;1.63;;
71091;SDS011;58751;50.708;7.134;2024-03-02T01:54:06;1.17;;;1.10;;
71091;SDS011;58751;50.708;7.134;2024-03-02T01:56:32;2.73;;;1.60;;
71091;SDS011;58751;50.708;7.134;2024-03-02T01:58:57;4.07;;;1.63;;
71091;SDS011;58751;50.708;7.134;2024-03-02T02:01:23;1.50;;;1.27;;
71091;SDS011;58751;50.708;7.134;2024-03-02T02:03:49;1.67;;;1.33;;
71091;SDS011;58751;50.708;7.134;2024-03-02T02:06:15;1.90;;;1.80;;
71091;SDS011;58751;50.708;7.134;2024-03-02T02:08:40;1.57;;;1.47;;
71091;SDS011;58751;50.708;7.134;2024-03-02T02:11:06;3.27;;;1.77;;
71091;SDS011;58751;50.708;7.134;2024-03-02T02:13:31;2.10;;;1.50;;
71091;SDS011;58751;50.708;7.134;2024-03-02T02:16:03;1.90;;;1.77;;
71091;SDS011;58751;50.708;7.134;2024-03-02T02:18:29;2.10;;;1.88;;
71091;SDS011;58751;50.708;7.134;2024-03-02T02:20:56;2.90;;;1.80;;
71091;SDS011;58751;50.708;7.134;2024-03-02T02:23:23;1.52;;;1.42;;
71091;SDS011;58751;50.708;7.134;2024-03-02T02:25:48;2.10;;;1.88;;
71091;SDS011;58751;50.708;7.134;2024-03-02T02:28:13;1.70;;;1.60;;
71091;SDS011;58751;50.708;7.134;2024-03-02T02:30:39;1.70;;;1.60;;
71091;SDS011;58751;50.708;7.134;2024-03-02T02:33:04;1.40;;;1.33;;
71091;SDS011;58751;50.708;7.134;2024-03-02T02:35:30;1.57;;;1.47;;
71091;SDS011;58751;50.708;7.134;2024-03-02T02:37:55;1.73;;;1.50;;
71091;SDS011;58751;50.708;7.134;2024-03-02T02:40:23;2.80;;;1.92;;
71091;SDS011;58751;50.708;7.134;2024-03-02T02:42:48;1.60;;;1.50;;
71091;SDS011;58751;50.708;7.134;2024-03-02T02:45:14;1.50;;;1.37;;
71091;SDS011;58751;50.708;7.134;2024-03-02T02:47:40;2.63;;;1.60;;
71091;SDS011;58751;50.708;7.134;2024-03-02T02:50:07;1.60;;;1.50;;
71091;SDS011;58751;50.708;7.134;2024-03-02T02:52:33;1.95;;;1.75;;
71091;SDS011;58751;50.708;7.134;2024-03-02T02:54:58;1.70;;;1.50;;
71091;SDS011;58751;50.708;7.134;2024-03-02T02:57:25;2.00;;;1.80;;
71091;SDS011;58751;50.708;7.134;2024-03-02T02:59:50;1.75;;;1.65;;
71091;SDS011;58751;50.708;7.134;2024-03-02T03:02:16;1.40;;;1.30;;
71091;SDS011;58751;50.708;7.134;2024-03-02T03:04:41;2.17;;;1.97;;
71091;SDS011;58751;50.708;7.134;2024-03-02T03:07:06;2.20;;;2.00;;
71091;SDS011;58751;50.708;7.134;2024-03-02T03:09:32;2.20;;;2.00;;
71091;SDS011;58751;50.708;7.134;2024-03-02T03:11:57;2.10;;;2.00;;
71091;SDS011;58751;50.708;7.134;2024-03-02T03:14:24;1.80;;;1.70;;
71091;SDS011;58751;50.708;7.134;2024-03-02T03:16:49;3.05;;;2.15;;
71091;SDS011;58751;50.708;7.134;2024-03-02T03:19:15;2.60;;;2.00;;
71091;SDS011;58751;50.708;7.134;2024-03-02T03:21:40;2.10;;;1.90;;
71091;SDS011;58751;50.708;7.134;2024-03-02T03:24:05;1.90;;;1.80;;
71091;SDS011;58751;50.708;7.134;2024-03-02T03:26:31;3.57;;;2.10;;
71091;SDS011;58751;50.708;7.134;2024-03-02T03:28:56;1.77;;;1.67;;
71091;SDS011;58751;50.708;7.134;2024-03-02T03:31:23;2.00;;;1.80;;
71091;SDS011;58751;50.708;7.134;2024-03-02T03:33:48;2.20;;;1.38;;
71091;SDS011;58751;50.708;7.134;2024-03-02T03:36:14;3.57;;;1.70;;
71091;SDS011;58751;50.708;7.134;2024-03-02T03:38:39;6.20;;;1.87;;
71091;SDS011;58751;50.708;7.134;2024-03-02T03:41:04;1.53;;;1.43;;
71091;SDS011;58751;50.708;7.134;2024-03-02T03:43:30;1.40;;;1.30;;
71091;SDS011;58751;50.708;7.134;2024-03-02T03:45:55;1.60;;;1.37;;
71091;SDS011;58751;50.708;7.134;2024-03-02T03:48:22;1.80;;;1.30;;
71091;SDS011;58751;50.708;7.134;2024-03-02T03:50:47;2.35;;;1.35;;
71091;SDS011;58751;50.708;7.134;2024-03-02T03:53:12;2.10;;;1.83;;
71091;SDS011;58751;50.708;7.134;2024-03-02T03:55:38;2.30;;;2.10;;
71091;SDS011;58751;50.708;7.134;2024-03-02T03:58:03;2.40;;;1.70;;
71091;SDS011;58751;50.708;7.134;2024-03-02T04:00:29;5.00;;;1.93;;
71091;SDS011;58751;50.708;7.134;2024-03-02T04:02:54;4.30;;;1.70;;
71091;SDS011;58751;50.708;7.134;2024-03-02T04:05:21;1.73;;;1.63;;
71091;SDS011;58751;50.708;7.134;2024-03-02T04:07:46;2.80;;;2.17;;
71091;SDS011;58751;50.708;7.134;2024-03-02T04:10:11;2.33;;;2.13;;
71091;SDS011;58751;50.708;7.134;2024-03-02T04:12:37;2.20;;;2.00;;
71091;SDS011;58751;50.708;7.134;2024-03-02T04:15:03;2.10;;;2.00;;
71091;SDS011;58751;50.708;7.134;2024-03-02T04:17:29;2.90;;;2.70;;
71091;SDS011;58751;50.708;7.134;2024-03-02T04:19:56;5.10;;;2.10;;
71091;SDS011;58751;50.708;7.134;2024-03-02T04:22:23;2.03;;;1.87;;
71091;SDS011;58751;50.708;7.134;2024-03-02T04:24:48;2.47;;;1.77;;
71091;SDS011;58751;50.708;7.134;2024-03-02T04:27:13;2.10;;;1.90;;
71091;SDS011;58751;50.708;7.134;2024-03-02T04:29:39;2.27;;;2.07;;
71091;SDS011;58751;50.708;7.134;2024-03-02T04:32:04;3.30;;;2.00;;
71091;SDS011;58751;50.708;7.134;2024-03-02T04:34:30;2.77;;;2.40;;
71091;SDS011;58751;50.708;7.134;2024-03-02T04:36:55;3.63;;;2.23;;
71091;SDS011;58751;50.708;7.134;2024-03-02T04:39:22;3.10;;;2.63;;
71091;SDS011;58751;50.708;7.134;2024-03-02T04:41:47;2.58;;;2.25;;
71091;SDS011;58751;50.708;7.134;2024-03-02T04:44:13;2.63;;;2.43;;
71091;SDS011;58751;50.708;7.134;2024-03-02T04:46:38;2.97;;;2.77;;
71091;SDS011;58751;50.708;7.134;2024-03-02T04:49:03;3.10;;;2.70;;
71091;SDS011;58751;50.708;7.134;2024-03-02T04:51:29;3.50;;;2.50;;
71091;SDS011;58751;50.708;7.134;2024-03-02T04:53:54;2.37;;;2.17;;
71091;SDS011;58751;50.708;7.134;2024-03-02T04:56:21;2.50;;;2.27;;
71091;SDS011;58751;50.708;7.134;2024-03-02T04:58:46;3.30;;;2.70;;
71091;SDS011;58751;50.708;7.134;2024-03-02T05:01:12;3.00;;;2.80;;
71091;SDS011;58751;50.708;7.134;2024-03-02T05:03:37;3.40;;;3.10;;
71091;SDS011;58751;50.708;7.134;2024-03-02T05:06:03;3.47;;;3.17;;
71091;SDS011;58751;50.708;7.134;2024-03-02T05:08:28;3.38;;;3.08;;
71091;SDS011;58751;50.708;7.134;2024-03-02T05:10:54;3.43;;;2.97;;
71091;SDS011;58751;50.708;7.134;2024-03-02T05:13:20;3.37;;;3.07;;
71091;SDS011;58751;50.708;7.134;2024-03-02T05:15:46;3.20;;;3.00;;
71091;SDS011;58751;50.708;7.134;2024-03-02T05:18:11;2.83;;;2.63;;
71091;SDS011;58751;50.708;7.134;2024-03-02T05:20:37;3.40;;;3.13;;
71091;SDS011;58751;50.708;7.134;2024-03-02T05:23:02;2.80;;;2.33;;
71091;SDS011;58751;50.708;7.134;2024-03-02T05:25:28;3.83;;;3.20;;
71091;SDS011;58751;50.708;7.134;2024-03-02T05:27:53;4.40;;;3.30;;
71091;SDS011;58751;50.708;7.134;2024-03-02T05:30:20;3.60;;;2.90;;
71091;SDS011;58751;50.708;7.134;2024-03-02T05:32:45;3.58;;;3.28;;
71091;SDS011;58751;50.708;7.134;2024-03-02T05:35:11;3.50;;;3.27;;
71091;SDS011;58751;50.708;7.134;2024-03-02T05:37:36;3.27;;;2.97;;
71091;SDS011;58751;50.708;7.134;2024-03-02T05:40:01;9.87;;;3.93;;
71091;SDS011;58751;50.708;7.134;2024-03-02T05:42:27;3.63;;;3.30;;
71091;SDS011;58751;50.708;7.134;2024-03-02T05:44:53;3.43;;;3.13;;
71091;SDS011;58751;50.708;7.134;2024-03-02T05:47:19;4.30;;;3.07;;
71091;SDS011;58751;50.708;7.134;2024-03-02T05:49:45;3.90;;;2.90;;
71091;SDS011;58751;50.708;7.134;2024-03-02T05:52:10;3.83;;;3.40;;
71091;SDS011;58751;50.708;7.134;2024-03-02T05:54:35;3.53;;;3.07;;
71091;SDS011;58751;50.708;7.134;2024-03-02T05:57:01;3.50;;;3.20;;
71091;SDS011;58751;50.708;7.134;2024-03-02T05:59:26;4.13;;;2.73;;
71091;SDS011;58751;50.708;7.134;2024-03-02T06:01:51;3.00;;;2.73;;
71091;SDS011;58751;50.708;7.134;2024-03-02T06:04:18;6.90;;;4.90;;
71091;SDS011;58751;50.708;7.134;2024-03-02T06:06:44;3.28;;;3.03;;
71091;SDS011;58751;50.708;7.134;2024-03-02T06:09:09;4.30;;;3.80;;
71091;SDS011;58751;50.708;7.134;2024-03-02T06:11:35;2.67;;;2.40;;
71091;SDS011;58751;50.708;7.134;2024-03-02T06:14:00;4.07;;;3.20;;
71091;SDS011;58751;50.708;7.134;2024-03-02T06:16:25;13.30;;;3.30;;
71091;SDS011;58751;50.708;7.134;2024-03-02T06:18:51;3.47;;;3.17;;
71091;SDS011;58751;50.708;7.134;2024-03-02T06:21:17;4.40;;;3.37;;
71091;SDS011;58751;50.708;7.134;2024-03-02T06:23:43;4.50;;;3.50;;
71091;SDS011;58751;50.708;7.134;2024-03-02T06:26:08;5.97;;;4.00;;
71091;SDS011;58751;50.708;7.134;2024-03-02T06:28:33;4.43;;;4.03;;
71091;SDS011;58751;50.708;7.134;2024-03-02T06:30:59;4.00;;;3.30;;
71091;SDS011;58751;50.708;7.134;2024-03-02T06:33:24;3.53;;;3.20;;
71091;SDS011;58751;50.708;7.134;2024-03-02T06:35:49;3.73;;;3.30;;
71091;SDS011;58751;50.708;7.134;2024-03-02T06:38:16;2.70;;;2.50;;
71091;SDS011;58751;50.708;7.134;2024-03-02T06:40:42;4.43;;;3.13;;
71091;SDS011;58751;50.708;7.134;2024-03-02T06:43:07;3.33;;;3.03;;
71091;SDS011;58751;50.708;7.134;2024-03-02T06:45:32;4.17;;;3.30;;
71091;SDS011;58751;50.708;7.134;2024-03-02T06:47:58;3.53;;;3.00;;
71091;SDS011;58751;50.708;7.134;2024-03-02T06:50:23;3.70;;;3.40;;
71091;SDS011;58751;50.708;7.134;2024-03-02T06:52:48;3.77;;;3.23;;
71091;SDS011;58751;50.708;7.134;2024-03-02T06:55:15;3.07;;;2.77;;
71091;SDS011;58751;50.708;7.134;2024-03-02T06:57:40;2.83;;;2.63;;
71091;SDS011;58751;50.708;7.134;2024-03-02T07:00:06;2.63;;;2.43;;
71091;SDS011;58751;50.708;7.134;2024-03-02T07:02:32;3.10;;;2.70;;
71091;SDS011;58751;50.708;7.134;2024-03-02T07:04:57;3.33;;;3.00;;
71091;SDS011;58751;50.708;7.134;2024-03-02T07:07:23;2.93;;;2.63;;
71091;SDS011;58751;50.708;7.134;2024-03-02T07:09:48;3.07;;;2.77;;
71091;SDS011;58751;50.708;7.134;2024-03-02T07:12:15;2.83;;;2.57;;
71091;SDS011;58751;50.708;7.134;2024-03-02T07:14:40;3.67;;;2.90;;
71091;SDS011;58751;50.708;7.134;2024-03-02T07:17:06;3.43;;;2.97;;
71091;SDS011;58751;50.708;7.134;2024-03-02T07:19:31;3.90;;;2.87;;
71091;SDS011;58751;50.708;7.134;2024-03-02T07:21:56;3.07;;;2.77;;
71091;SDS011;58751;50.708;7.134;2024-03-02T07:24:22;3.67;;;3.33;;
71091;SDS011;58751;50.708;7.134;2024-03-02T07:26:47;3.03;;;2.73;;
71091;SDS011;58751;50.708;7.134;2024-03-02T07:29:14;2.90;;;2.60;;
71091;SDS011;58751;50.708;7.134;2024-03-02T07:31:39;4.30;;;2.80;;
71091;SDS011;58751;50.708;7.134;2024-03-02T07:34:04;3.07;;;2.70;;
71091;SDS011;58751;50.708;7.134;2024-03-02T07:36:30;3.47;;;3.10;;
71091;SDS011;58751;50.708;7.134;2024-03-02T07:38:55;5.73;;;2.80;;
71091;SDS011;58751;50.708;7.134;2024-03-02T07:41:21;5.57;;;3.33;;
71091;SDS011;58751;50.708;7.134;2024-03-02T07:43:46;2.97;;;2.70;;
71091;SDS011;58751;50.708;7.134;2024-03-02T07:46:13;3.10;;;2.80;;
71091;SDS011;58751;50.708;7.134;2024-03-02T07:48:38;2.80;;;2.60;;
71091;SDS011;58751;50.708;7.134;2024-03-02T07:51:04;2.80;;;2.60;;
71091;SDS011;58751;50.708;7.134;2024-03-02T07:53:29;2.63;;;2.43;;
71091;SDS011;58751;50.708;7.134;2024-03-02T07:55:54;2.93;;;2.70;;
71091;SDS011;58751;50.708;7.134;2024-03-02T07:58:20;5.43;;;3.37;;
71091;SDS011;58751;50.708;7.134;2024-03-02T08:00:45;3.43;;;2.70;;
71091;SDS011;58751;50.708;7.134;2024-03-02T08:03:12;2.77;;;2.57;;
71091;SDS011;58751;50.708;7.134;2024-03-02T08:05:38;3.25;;;3.00;;
71091;SDS011;58751;50.708;7.134;2024-03-02T08:08:04;2.33;;;2.13;;
71091;SDS011;58751;50.708;7.134;2024-03-02T08:10:29;4.17;;;2.20;;
71091;SDS011;58751;50.708;7.134;2024-03-02T08:12:55;4.30;;;2.47;;
71091;SDS011;58751;50.708;7.134;2024-03-02T08:15:20;2.50;;;2.30;;
71091;SDS011;58751;50.708;7.134;2024-03-02T08:17:45;5.30;;;2.50;;
71091;SDS011;58751;50.708;7.134;2024-03-02T08:20:12;2.83;;;2.63;;
71091;SDS011;58751;50.708;7.134;2024-03-02T08:22:38;3.50;;;2.50;;
71091;SDS011;58751;50.708;7.134;2024-03-02T08:25:03;2.37;;;2.17;;
71091;SDS011;58751;50.708;7.134;2024-03-02T08:27:29;2.47;;;2.27;;
71091;SDS011;58751;50.708;7.134;2024-03-02T08:29:55;2.70;;;2.50;;
71091;SDS011;58751;50.708;7.134;2024-03-02T08:32:20;3.23;;;2.43;;
71091;SDS011;58751;50.708;7.134;2024-03-02T08:34:46;2.47;;;2.27;;
71091;SDS011;58751;50.708;7.134;2024-03-02T08:37:13;3.40;;;2.30;;
71091;SDS011;58751;50.708;7.134;2024-03-02T08:39:38;2.37;;;2.17;;
71091;SDS011;58751;50.708;7.134;2024-03-02T08:42:03;2.57;;;2.37;;
71091;SDS011;58751;50.708;7.134;2024-03-02T08:44:29;3.40;;;2.20;;
71091;SDS011;58751;50.708;7.134;2024-03-02T08:46:54;2.70;;;2.37;;
71091;SDS011;58751;50.708;7.134;2024-03-02T08:49:20;3.53;;;2.33;;
71091;SDS011;58751;50.708;7.134;2024-03-02T08:51:45;2.30;;;2.10;;
71091;SDS011;58751;50.708;7.134;2024-03-02T08:54:12;2.87;;;2.67;;
71091;SDS011;58751;50.708;7.134;2024-03-02T08:56:37;3.27;;;2.33;;
71091;SDS011;58751;50.708;7.134;2024-03-02T08:59:03;2.80;;;2.00;;
71091;SDS011;58751;50.708;7.134;2024-03-02T09:01:28;2.53;;;2.33;;
71091;SDS011;58751;50.708;7.134;2024-03-02T09:03:54;2.60;;;2.23;;
71091;SDS011;58751;50.708;7.134;2024-03-02T09:06:19;2.93;;;2.60;;
71091;SDS011;58751;50.708;7.134;2024-03-02T09:08:44;3.13;;;2.43;;
71091;SDS011;58751;50.708;7.134;2024-03-02T09:11:11;2.70;;;2.07;;
71091;SDS011;58751;50.708;7.134;2024-03-02T09:13:37;3.10;;;2.40;;
71091;SDS011;58751;50.708;7.134;2024-03-02T09:16:03;3.85;;;2.60;;
71091;SDS011;58751;50.708;7.134;2024-03-02T09:18:28;4.07;;;2.73;;
71091;SDS011;58751;50.708;7.134;2024-03-02T09:20:54;2.30;;;2.10;;
71091;SDS011;58751;50.708;7.134;2024-03-02T09:23:20;2.47;;;2.23;;
71091;SDS011;58751;50.708;7.134;2024-03-02T09:25:45;2.20;;;2.03;;
71091;SDS011;58751;50.708;7.134;2024-03-02T09:28:12;3.30;;;3.10;;
71091;SDS011;58751;50.708;7.134;2024-03-02T09:30:38;3.30;;;2.57;;
71091;SDS011;58751;50.708;7.134;2024-03-02T09:33:03;5.70;;;2.60;;
71091;SDS011;58751;50.708;7.134;2024-03-02T09:35:29;2.30;;;2.10;;
71091;SDS011;58751;50.708;7.134;2024-03-02T09:37:55;2.10;;;1.90;;
71091;SDS011;58751;50.708;7.134;2024-03-02T09:40:21;3.13;;;2.80;;
71091;SDS011;58751;50.708;7.134;2024-03-02T09:42:47;3.83;;;2.37;;
71091;SDS011;58751;50.708;7.134;2024-03-02T09:45:13;3.00;;;2.70;;
71091;SDS011;58751;50.708;7.134;2024-03-02T09:47:39;3.00;;;2.20;;
71091;SDS011;58751;50.708;7.134;2024-03-02T09:50:04;3.70;;;2.47;;
71091;SDS011;58751;50.708;7.134;2024-03-02T09:52:31;2.40;;;2.20;;
71091;SDS011;58751;50.708;7.134;2024-03-02T09:54:57;3.23;;;2.40;;
71091;SDS011;58751;50.708;7.134;2024-03-02T09:57:22;3.10;;;2.80;;
71091;SDS011;58751;50.708;7.134;2024-03-02T09:59:48;2.40;;;2.20;;
71091;SDS011;58751;50.708;7.134;2024-03-02T10:02:14;2.83;;;2.60;;
71091;SDS011;58751;50.708;7.134;2024-03-02T10:04:40;4.30;;;2.90;;
71091;SDS011;58751;50.708;7.134;2024-03-02T10:07:12;2.27;;;2.03;;
71091;SDS011;58751;50.708;7.134;2024-03-02T10:09:38;2.17;;;2.07;;
71091;SDS011;58751;50.708;7.134;2024-03-02T10:12:04;3.10;;;2.20;;
71091;SDS011;58751;50.708;7.134;2024-03-02T10:14:30;2.33;;;2.13;;
71091;SDS011;58751;50.708;7.134;2024-03-02T10:16:55;3.17;;;2.20;;
71091;SDS011;58751;50.708;7.134;2024-03-02T10:19:28;2.30;;;2.10;;
71091;SDS011;58751;50.708;7.134;2024-03-02T10:21:54;2.50;;;2.23;;
71091;SDS011;58751;50.708;7.134;2024-03-02T10:24:20;2.50;;;2.30;;
71091;SDS011;58751;50.708;7.134;2024-03-02T10:26:46;2.87;;;2.23;;
71091;SDS011;58751;50.708;7.134;2024-03-02T10:29:12;3.07;;;2.07;;
71091;SDS011;58751;50.708;7.134;2024-03-02T10:31:38;2.80;;;2.60;;
71091;SDS011;58751;50.708;7.134;2024-03-02T10:34:03;2.90;;;2.40;;
71091;SDS011;58751;50.708;7.134;2024-03-02T10:36:30;4.00;;;2.10;;
71091;SDS011;58751;50.708;7.134;2024-03-02T10:38:56;2.30;;;2.10;;
71091;SDS011;58751;50.708;7.134;2024-03-02T10:41:22;3.03;;;2.37;;
71091;SDS011;58751;50.708;7.134;2024-03-02T10:43:48;3.90;;;2.27;;
71091;SDS011;58751;50.708;7.134;2024-03-02T10:46:14;3.43;;;3.13;;
71091;SDS011;58751;50.708;7.134;2024-03-02T10:48:41;2.00;;;1.90;;
71091;SDS011;58751;50.708;7.134;2024-03-02T10:51:08;1.97;;;1.73;;
71091;SDS011;58751;50.708;7.134;2024-03-02T10:53:35;3.00;;;2.63;;
71091;SDS011;58751;50.708;7.134;2024-03-02T10:56:00;2.37;;;2.17;;
71091;SDS011;58751;50.708;7.134;2024-03-02T10:58:26;2.70;;;2.50;;
71091;SDS011;58751;50.708;7.134;2024-03-02T11:00:57;3.00;;;2.23;;
71091;SDS011;58751;50.708;7.134;2024-03-02T11:03:25;4.43;;;2.50;;
71091;SDS011;58751;50.708;7.134;2024-03-02T11:05:50;2.80;;;2.07;;
71091;SDS011;58751;50.708;7.134;2024-03-02T11:08:16;3.07;;;1.97;;
71091;SDS011;58751;50.708;7.134;2024-03-02T11:10:45;4.70;;;2.20;;
71091;SDS011;58751;50.708;7.134;2024-03-02T11:13:13;2.73;;;2.10;;
71091;SDS011;58751;50.708;7.134;2024-03-02T11:15:39;2.73;;;2.20;;
71091;SDS011;58751;50.708;7.134;2024-03-02T11:18:05;2.67;;;2.00;;
71091;SDS011;58751;50.708;7.134;2024-03-02T11:20:31;1.83;;;1.20;;
71091;SDS011;58751;50.708;7.134;2024-03-02T11:22:57;1.87;;;1.77;;
71091;SDS011;58751;50.708;7.134;2024-03-02T11:25:22;1.70;;;1.57;;
71091;SDS011;58751;50.708;7.134;2024-03-02T11:28:00;2.80;;;1.53;;
71091;SDS011;58751;50.708;7.134;2024-03-02T11:33:16;2.03;;;1.60;;
71091;SDS011;58751;50.708;7.134;2024-03-02T11:35:48;1.80;;;1.63;;
71091;SDS011;58751;50.708;7.134;2024-03-02T11:38:13;2.53;;;1.57;;
71091;SDS011;58751;50.708;7.134;2024-03-02T11:40:39;1.30;;;1.20;;
71091;SDS011;58751;50.708;7.134;2024-03-02T11:43:06;1.70;;;1.60;;
71091;SDS011;58751;50.708;7.134;2024-03-02T11:45:31;1.07;;;1.07;;
71091;SDS011;58751;50.708;7.134;2024-03-02T11:47:57;2.53;;;1.30;;
71091;SDS011;58751;50.708;7.134;2024-03-02T11:50:28;1.40;;;1.07;;
71091;SDS011;58751;50.708;7.134;2024-03-02T11:52:54;1.53;;;1.43;;
71091;SDS011;58751;50.708;7.134;2024-03-02T11:55:20;1.20;;;1.20;;
71091;SDS011;58751;50.708;7.134;2024-03-02T11:57:46;2.97;;;1.60;;
71091;SDS011;58751;50.708;7.134;2024-03-02T12:00:17;1.60;;;1.30;;
71091;SDS011;58751;50.708;7.134;2024-03-02T12:02:43;2.00;;;1.83;;
71091;SDS011;58751;50.708;7.134;2024-03-02T12:05:09;1.80;;;1.43;;
71091;SDS011;58751;50.708;7.134;2024-03-02T12:07:34;2.80;;;1.80;;
71091;SDS011;58751;50.708;7.134;2024-03-02T12:10:00;3.83;;;2.07;;
71091;SDS011;58751;50.708;7.134;2024-03-02T12:12:25;1.20;;;1.10;;
71091;SDS011;58751;50.708;7.134;2024-03-02T12:14:51;2.00;;;1.90;;
71091;SDS011;58751;50.708;7.134;2024-03-02T12:17:19;3.17;;;1.27;;
71091;SDS011;58751;50.708;7.134;2024-03-02T12:19:44;1.23;;;1.13;;
71091;SDS011;58751;50.708;7.134;2024-03-02T12:22:09;2.40;;;1.30;;
71091;SDS011;58751;50.708;7.134;2024-03-02T12:24:35;1.80;;;1.13;;
71091;SDS011;58751;50.708;7.134;2024-03-02T12:27:00;1.40;;;1.30;;
71091;SDS011;58751;50.708;7.134;2024-03-02T12:29:26;1.57;;;1.13;;
71091;SDS011;58751;50.708;7.134;2024-03-02T12:31:52;1.40;;;1.30;;
71091;SDS011;58751;50.708;7.134;2024-03-02T12:34:19;2.77;;;1.30;;
71091;SDS011;58751;50.708;7.134;2024-03-02T12:36:45;2.77;;;1.33;;
71091;SDS011;58751;50.708;7.134;2024-03-02T12:39:11;1.40;;;0.90;;
71091;SDS011;58751;50.708;7.134;2024-03-02T12:41:36;1.37;;;1.27;;
71091;SDS011;58751;50.708;7.134;2024-03-02T12:44:02;1.60;;;1.27;;
71091;SDS011;58751;50.708;7.134;2024-03-02T12:46:27;1.50;;;1.40;;
71091;SDS011;58751;50.708;7.134;2024-03-02T12:48:52;1.50;;;1.40;;
71091;SDS011;58751;50.708;7.134;2024-03-02T12:51:19;1.40;;;1.30;;
71091;SDS011;58751;50.708;7.134;2024-03-02T12:53:45;1.67;;;1.57;;
71091;SDS011;58751;50.708;7.134;2024-03-02T12:56:10;1.83;;;1.07;;
71091;SDS011;58751;50.708;7.134;2024-03-02T12:58:38;1.47;;;1.10;;
71091;SDS011;58751;50.708;7.134;2024-03-02T13:01:07;2.83;;;1.30;;
71091;SDS011;58751;50.708;7.134;2024-03-02T13:03:34;1.67;;;1.00;;
71091;SDS011;58751;50.708;7.134;2024-03-02T13:06:00;1.00;;;1.00;;
71091;SDS011;58751;50.708;7.134;2024-03-02T13:08:27;1.40;;;1.30;;
71091;SDS011;58751;50.708;7.134;2024-03-02T13:10:52;1.50;;;1.40;;
71091;SDS011;58751;50.708;7.134;2024-03-02T13:13:18;1.27;;;1.00;;
71091;SDS011;58751;50.708;7.134;2024-03-02T13:15:43;1.00;;;1.00;;
71091;SDS011;58751;50.708;7.134;2024-03-02T13:18:09;1.50;;;1.40;;
71091;SDS011;58751;50.708;7.134;2024-03-02T13:20:34;1.70;;;1.30;;
71091;SDS011;58751;50.708;7.134;2024-03-02T13:22:59;2.73;;;1.43;;
71091;SDS011;58751;50.708;7.134;2024-03-02T13:25:26;2.37;;;1.63;;
71091;SDS011;58751;50.708;7.134;2024-03-02T13:27:51;1.37;;;1.27;;
71091;SDS011;58751;50.708;7.134;2024-03-02T13:30:17;1.50;;;1.40;;
71091;SDS011;58751;50.708;7.134;2024-03-02T13:32:42;1.40;;;1.30;;
71091;SDS011;58751;50.708;7.134;2024-03-02T13:35:08;1.30;;;1.20;;
71091;SDS011;58751;50.708;7.134;2024-03-02T13:37:33;3.53;;;1.13;;
71091;SDS011;58751;50.708;7.134;2024-03-02T13:39:58;1.20;;;1.20;;
71091;SDS011;58751;50.708;7.134;2024-03-02T13:42:25;1.97;;;1.20;;
71091;SDS011;58751;50.708;7.134;2024-03-02T13:44:51;1.50;;;1.00;;
71091;SDS011;58751;50.708;7.134;2024-03-02T13:47:16;1.30;;;1.20;;
71091;SDS011;58751;50.708;7.134;2024-03-02T13:49:42;1.20;;;1.13;;
71091;SDS011;58751;50.708;7.134;2024-03-02T13:52:07;1.30;;;1.20;;
71091;SDS011;58751;50.708;7.134;2024-03-02T13:54:32;2.30;;;1.43;;
71091;SDS011;58751;50.708;7.134;2024-03-02T13:56:58;1.23;;;1.13;;
71091;SDS011;58751;50.708;7.134;2024-03-02T13:59:24;1.53;;;1.40;;
71091;SDS011;58751;50.708;7.134;2024-03-02T14:01:50;2.13;;;1.07;;
71091;SDS011;58751;50.708;7.134;2024-03-02T14:04:15;2.10;;;1.03;;
71091;SDS011;58751;50.708;7.134;2024-03-02T14:06:42;3.00;;;1.40;;
71091;SDS011;58751;50.708;7.134;2024-03-02T14:09:07;1.30;;;1.20;;
71091;SDS011;58751;50.708;7.134;2024-03-02T14:11:33;1.47;;;1.27;;
71091;SDS011;58751;50.708;7.134;2024-03-02T14:13:58;1.20;;;0.90;;
71091;SDS011;58751;50.708;7.134;2024-03-02T14:16:25;2.60;;;1.30;;
71091;SDS011;58751;50.708;7.134;2024-03-02T14:18:50;2.30;;;1.50;;
71091;SDS011;58751;50.708;7.134;2024-03-02T14:21:16;1.17;;;1.07;;
71091;SDS011;58751;50.708;7.134;2024-03-02T14:23:41;1.53;;;1.40;;
71091;SDS011;58751;50.708;7.134;2024-03-02T14:26:06;1.30;;;1.20;;
71091;SDS011;58751;50.708;7.134;2024-03-02T14:28:32;1.60;;;1.50;;
71091;SDS011;58751;50.708;7.134;2024-03-02T14:30:57;2.47;;;1.40;;
71091;SDS011;58751;50.708;7.134;2024-03-02T14:33:24;1.07;;;0.97;;
71091;SDS011;58751;50.708;7.134;2024-03-02T14:35:49;1.10;;;1.00;;
71091;SDS011;58751;50.708;7.134;2024-03-02T14:38:15;1.77;;;1.57;;
71091;SDS011;58751;50.708;7.134;2024-03-02T14:40:40;1.70;;;1.33;;
71091;SDS011;58751;50.708;7.134;2024-03-02T14:43:05;1.47;;;1.30;;